Time;durP1;ratioP1;P1;durP2;ratioP2;P2;SDS_P1;SDS_P2;PMS_P1;PMS_P2;Temp;Humidity;BMP_temperature;BMP_pressure;BME280_temperature;BME280_humidity;BME280_pressure;Samples;Min_cycle;Max_cycle;Signal;HPM_P1;HPM_P2
2022/10/30 00:01:26;;;;;;;19.13;6.82;;;14.80;99.90;;;;;;5080825;28;20166;-75
2022/10/30 00:03:54;;;;;;;15.80;6.57;;;14.80;99.90;;;;;;5064692;28;20036;-75
2022/10/30 00:06:20;;;;;;;14.93;5.78;;;14.80;99.90;;;;;;5068848;28;20088;-76
2022/10/30 00:08:48;;;;;;;14.82;5.32;;;14.80;99.90;;;;;;5069019;28;20040;-75
2022/10/30 00:11:17;;;;;;;25.23;5.15;;;14.80;99.90;;;;;;5071102;28;20024;-75
2022/10/30 00:13:43;;;;;;;14.20;5.50;;;14.70;99.90;;;;;;5071224;28;20431;-75
2022/10/30 00:16:09;;;;;;;18.45;5.68;;;14.70;99.90;;;;;;5068305;28;20105;-76
2022/10/30 00:18:36;;;;;;;10.73;4.93;;;14.70;99.90;;;;;;5071874;28;20044;-75
2022/10/30 00:21:13;;;;;;;15.32;5.03;;;14.70;99.90;;;;;;5068567;28;20029;-75
2022/10/30 00:24:05;;;;;;;13.82;4.68;;;14.70;99.90;;;;;;5078350;28;20032;-75
2022/10/30 00:26:32;;;;;;;15.57;5.90;;;14.60;99.90;;;;;;5069612;28;20485;-76
2022/10/30 00:29:00;;;;;;;11.65;4.95;;;14.60;99.90;;;;;;5065549;28;20036;-75
2022/10/30 00:31:26;;;;;;;15.20;5.03;;;14.60;99.90;;;;;;5069477;28;20024;-76
2022/10/30 00:33:53;;;;;;;14.65;5.50;;;14.60;99.90;;;;;;5073622;28;20505;-75
2022/10/30 00:36:19;;;;;;;16.35;4.70;;;14.60;99.90;;;;;;5070608;28;20031;-75
2022/10/30 00:38:45;;;;;;;11.00;4.80;;;14.60;99.90;;;;;;5071593;28;20028;-75
2022/10/30 00:41:17;;;;;;;12.70;5.00;;;14.50;99.90;;;;;;5070876;28;20028;-76
2022/10/30 00:43:42;;;;;;;17.27;4.75;;;14.60;99.90;;;;;;5066497;28;20040;-75
2022/10/30 00:46:20;;;;;;;14.57;5.80;;;14.60;99.90;;;;;;5072898;28;20029;-75
2022/10/30 00:49:00;;;;;;;11.18;4.45;;;14.50;99.90;;;;;;5086764;28;20052;-76
2022/10/30 00:51:33;;;;;;;9.80;4.65;;;14.50;99.90;;;;;;5071575;28;20354;-75
2022/10/30 00:54:05;;;;;;;13.85;4.43;;;14.50;99.90;;;;;;5067026;28;20037;-75
2022/10/30 00:56:31;;;;;;;9.63;4.50;;;14.50;99.90;;;;;;5071916;28;20342;-75
2022/10/30 00:59:08;;;;;;;19.63;4.43;;;14.50;99.90;;;;;;5071854;28;20028;-75
2022/10/30 01:01:39;;;;;;;12.32;4.93;;;14.50;99.90;;;;;;5070595;28;20062;-75
2022/10/30 01:04:15;;;;;;;10.23;4.25;;;14.50;99.90;;;;;;5069048;28;20052;-75
2022/10/30 01:06:47;;;;;;;15.27;4.30;;;14.50;99.90;;;;;;5073716;28;20021;-75
2022/10/30 01:09:14;;;;;;;14.63;4.68;;;14.50;99.90;;;;;;5069172;28;20111;-75
2022/10/30 01:11:42;;;;;;;14.18;4.32;;;14.60;99.90;;;;;;5070615;28;20024;-74
2022/10/30 01:14:20;;;;;;;16.35;3.88;;;14.60;99.90;;;;;;5068172;28;20070;-75
2022/10/30 01:17:24;;;;;;;13.50;4.40;;;14.60;99.90;;;;;;5067992;28;20041;-75
2022/10/30 01:20:03;;;;;;;9.57;4.13;;;14.70;99.90;;;;;;5005723;28;20036;-74
2022/10/30 01:22:37;;;;;;;10.85;3.45;;;14.70;99.90;;;;;;5064070;28;20032;-75
2022/10/30 01:25:22;;;;;;;9.55;4.15;;;14.80;99.90;;;;;;5068347;28;20024;-75
2022/10/30 01:28:15;;;;;;;;;;;14.80;99.90;;;;;;5072166;28;20544;-76
2022/10/30 01:31:20;;;;;;;13.25;3.90;;;14.80;99.90;;;;;;5063045;28;19916;-75
2022/10/30 01:34:04;;;;;;;;;;;14.80;99.90;;;;;;5065289;28;20037;-76
2022/10/30 01:36:45;;;;;;;10.38;3.70;;;14.80;99.90;;;;;;5064190;28;19915;-75
2022/10/30 01:39:25;;;;;;;12.48;3.55;;;14.80;99.90;;;;;;5071832;28;20035;-75
2022/10/30 01:41:50;;;;;;;21.30;5.07;;;14.80;99.90;;;;;;5068304;28;20101;-75
2022/10/30 01:44:31;;;;;;;14.05;4.40;;;14.70;99.90;;;;;;5070471;28;20071;-75
2022/10/30 01:47:19;;;;;;;14.95;4.57;;;14.70;99.90;;;;;;5071867;28;20024;-75
2022/10/30 01:50:05;;;;;;;14.43;5.28;;;14.60;99.90;;;;;;5073542;28;20120;-75
2022/10/30 01:53:02;;;;;;;13.85;4.95;;;14.60;99.90;;;;;;5071362;28;20111;-75
2022/10/30 01:56:11;;;;;;;18.00;4.93;;;14.60;99.90;;;;;;5070636;28;20020;-75
2022/10/30 01:59:01;;;;;;;15.20;5.20;;;14.50;99.90;;;;;;5040827;28;20041;-75
2022/10/30 02:01:40;;;;;;;16.55;5.15;;;14.40;99.90;;;;;;5072219;28;20024;-76
2022/10/30 02:04:11;;;;;;;14.35;5.00;;;14.40;99.90;;;;;;5069250;28;20092;-76
2022/10/30 02:06:40;;;;;;;11.57;4.00;;;14.30;99.90;;;;;;5067640;28;20024;-76
2022/10/30 02:09:06;;;;;;;17.17;4.47;;;14.30;99.90;;;;;;5069247;28;20033;-74
2022/10/30 02:11:33;;;;;;;12.25;4.70;;;14.20;99.90;;;;;;5074891;28;20031;-74
2022/10/30 02:14:04;;;;;;;14.57;4.82;;;14.20;99.90;;;;;;5069694;28;20016;-75
2022/10/30 02:16:34;;;;;;;10.88;4.38;;;14.20;99.90;;;;;;5068629;28;20201;-75
2022/10/30 02:19:02;;;;;;;16.58;4.22;;;14.20;99.90;;;;;;5063979;28;20123;-75
2022/10/30 02:21:34;;;;;;;12.52;4.53;;;14.20;99.90;;;;;;5069139;28;20425;-75
2022/10/30 02:23:59;;;;;;;17.48;4.57;;;14.20;99.90;;;;;;5067473;28;20064;-75
2022/10/30 02:26:28;;;;;;;14.55;5.00;;;14.20;99.90;;;;;;5071594;28;20173;-75
2022/10/30 02:28:57;;;;;;;11.25;4.80;;;14.20;99.90;;;;;;5067361;28;20036;-74
2022/10/30 02:31:22;;;;;;;15.18;5.70;;;14.10;99.90;;;;;;5070764;28;20032;-75
2022/10/30 02:33:51;;;;;;;15.20;6.28;;;14.10;99.90;;;;;;5067534;28;20028;-74
2022/10/30 02:36:16;;;;;;;14.13;4.47;;;14.00;99.90;;;;;;5070199;28;20021;-75
2022/10/30 02:38:43;;;;;;;14.85;5.40;;;14.00;99.90;;;;;;5072061;28;20020;-76
2022/10/30 02:41:11;;;;;;;13.20;4.40;;;14.00;99.90;;;;;;5069337;28;20400;-76
2022/10/30 02:43:37;;;;;;;9.68;3.85;;;14.00;99.90;;;;;;5067432;28;20385;-76
2022/10/30 02:46:04;;;;;;;14.02;4.57;;;14.00;99.90;;;;;;5068571;28;20035;-76
2022/10/30 02:48:32;;;;;;;16.30;4.50;;;14.00;99.90;;;;;;5071567;28;20021;-75
2022/10/30 02:51:02;;;;;;;12.18;4.07;;;14.00;99.90;;;;;;5068775;28;20025;-75
2022/10/30 02:53:29;;;;;;;11.40;4.45;;;14.00;99.90;;;;;;5069746;28;20628;-76
2022/10/30 02:55:55;;;;;;;12.10;3.88;;;14.00;99.90;;;;;;5072323;28;20077;-76
2022/10/30 02:58:21;;;;;;;11.60;3.90;;;14.00;99.90;;;;;;5068377;28;20016;-75
2022/10/30 03:00:50;;;;;;;11.55;4.05;;;14.10;99.90;;;;;;5072361;28;20036;-75
2022/10/30 03:03:15;;;;;;;13.68;3.97;;;14.10;99.90;;;;;;5069673;28;20128;-75
2022/10/30 03:05:41;;;;;;;14.57;4.47;;;14.00;99.90;;;;;;5068107;28;20119;-75
2022/10/30 03:08:07;;;;;;;13.25;4.00;;;14.00;99.90;;;;;;5068415;28;20346;-75
2022/10/30 03:10:35;;;;;;;13.50;4.75;;;14.00;99.90;;;;;;5084209;28;20032;-75
2022/10/30 03:13:04;;;;;;;12.73;4.03;;;14.00;99.90;;;;;;5094445;22;20031;-80
2022/10/30 03:15:33;;;;;;;11.38;3.58;;;14.00;99.90;;;;;;5053122;28;20028;-84
2022/10/30 03:17:58;;;;;;;10.32;3.72;;;14.00;99.90;;;;;;5052376;28;20032;-81
2022/10/30 03:20:30;;;;;;;13.68;3.78;;;14.00;99.90;;;;;;5071529;28;20039;-80
2022/10/30 03:22:55;;;;;;;10.15;3.38;;;14.00;99.90;;;;;;5055551;28;20477;-81
2022/10/30 03:25:30;;;;;;;11.07;3.75;;;14.00;99.90;;;;;;5054036;28;20047;-81
2022/10/30 03:27:55;;;;;;;14.20;3.67;;;14.00;99.90;;;;;;5060618;28;20025;-80
2022/10/30 03:30:21;;;;;;;12.68;3.75;;;14.10;99.90;;;;;;5061250;28;20108;-80
2022/10/30 03:32:46;;;;;;;9.85;3.28;;;14.10;99.90;;;;;;5048820;28;20024;-80
2022/10/30 03:35:15;;;;;;;13.32;4.25;;;14.00;99.90;;;;;;5053957;28;20469;-78
2022/10/30 03:37:41;;;;;;;12.73;4.18;;;14.00;99.90;;;;;;5053196;28;20039;-80
2022/10/30 03:40:07;;;;;;;11.70;5.43;;;14.00;99.90;;;;;;5053184;28;20085;-79
2022/10/30 03:42:40;;;;;;;11.98;4.60;;;14.00;99.90;;;;;;5051505;28;20025;-80
2022/10/30 03:45:06;;;;;;;14.50;5.75;;;14.00;99.90;;;;;;5052303;28;20040;-79
2022/10/30 03:47:31;;;;;;;17.48;5.90;;;14.00;99.90;;;;;;5060809;28;20024;-79
2022/10/30 03:49:57;;;;;;;13.77;5.28;;;13.90;99.90;;;;;;5057268;28;20486;-78
2022/10/30 03:52:22;;;;;;;12.40;5.50;;;13.90;99.90;;;;;;5065184;28;20044;-80
2022/10/30 03:54:48;;;;;;;13.18;5.93;;;13.90;99.90;;;;;;5061196;28;20033;-79
2022/10/30 03:57:13;;;;;;;11.48;5.28;;;13.80;99.90;;;;;;5065723;28;20048;-81
2022/10/30 03:59:48;;;;;;;16.58;5.55;;;13.80;99.90;;;;;;5053885;28;20029;-81
2022/10/30 04:02:17;;;;;;;17.65;6.38;;;13.80;99.90;;;;;;5057131;28;20566;-81
2022/10/30 04:04:42;;;;;;;16.52;5.40;;;13.80;99.90;;;;;;5057877;28;20035;-81
2022/10/30 04:07:11;;;;;;;22.63;4.88;;;13.70;99.90;;;;;;5067721;28;20033;-80
2022/10/30 04:09:39;;;;;;;11.57;4.30;;;13.70;99.90;;;;;;5057655;28;20055;-80
2022/10/30 04:12:14;;;;;;;11.98;4.20;;;13.60;99.90;;;;;;5056172;28;20029;-81
2022/10/30 04:14:40;;;;;;;17.08;5.82;;;13.60;99.90;;;;;;5056317;28;20021;-81
2022/10/30 04:17:09;;;;;;;11.45;4.60;;;13.60;99.90;;;;;;5057968;28;20048;-82
2022/10/30 04:19:37;;;;;;;14.70;4.47;;;13.50;99.90;;;;;;5072853;28;20029;-82
2022/10/30 04:22:03;;;;;;;14.65;5.57;;;13.50;99.90;;;;;;5059742;28;20033;-80
2022/10/30 04:24:29;;;;;;;16.33;5.40;;;13.50;99.90;;;;;;5052649;28;20090;-80
2022/10/30 04:26:57;;;;;;;11.55;4.97;;;13.50;99.90;;;;;;5054287;28;20033;-80
2022/10/30 04:29:32;;;;;;;9.32;4.18;;;13.40;99.90;;;;;;5055475;28;20020;-79
2022/10/30 04:32:00;;;;;;;11.55;4.55;;;13.40;99.90;;;;;;5051067;28;20025;-79
2022/10/30 04:34:26;;;;;;;14.60;4.90;;;13.40;99.90;;;;;;5055181;28;20083;-79
2022/10/30 04:37:01;;;;;;;13.38;4.53;;;13.30;99.90;;;;;;5055219;28;20390;-81
2022/10/30 04:39:29;;;;;;;13.32;4.75;;;13.30;99.90;;;;;;5056293;28;20079;-81
2022/10/30 04:41:58;;;;;;;12.75;4.43;;;13.30;99.90;;;;;;5059348;28;20115;-80
2022/10/30 04:44:26;;;;;;;12.98;5.25;;;13.30;99.90;;;;;;5059183;28;20025;-80
2022/10/30 04:46:52;;;;;;;14.25;5.07;;;13.30;99.90;;;;;;5057055;28;20170;-81
2022/10/30 04:49:20;;;;;;;12.90;5.32;;;13.30;99.90;;;;;;5055180;28;20049;-77
2022/10/30 04:51:49;;;;;;;12.02;4.47;;;13.20;99.90;;;;;;5055514;28;20028;-78
2022/10/30 04:54:14;;;;;;;9.95;3.65;;;13.20;99.90;;;;;;5058433;28;20057;-81
2022/10/30 04:56:40;;;;;;;12.07;4.03;;;13.20;99.90;;;;;;5061865;28;20527;-82
2022/10/30 04:59:06;;;;;;;15.02;3.88;;;13.20;99.90;;;;;;5056105;28;20056;-80
2022/10/30 05:01:40;;;;;;;15.55;4.03;;;13.10;99.90;;;;;;5061484;28;20025;-82
2022/10/30 05:04:09;;;;;;;10.77;4.22;;;13.10;99.90;;;;;;5057250;28;20542;-82
2022/10/30 05:06:35;;;;;;;12.55;4.07;;;13.10;99.90;;;;;;5060951;28;20063;-81
2022/10/30 05:09:06;;;;;;;15.63;4.43;;;13.10;99.90;;;;;;5054347;28;20029;-79
2022/10/30 05:11:32;;;;;;;11.80;4.43;;;13.10;99.90;;;;;;5051624;28;20032;-80
2022/10/30 05:14:01;;;;;;;9.40;4.13;;;13.10;99.90;;;;;;5057933;28;20041;-80
2022/10/30 05:16:35;;;;;;;11.25;4.22;;;13.00;99.90;;;;;;5054051;28;20028;-79
2022/10/30 05:19:01;;;;;;;11.57;3.92;;;13.00;99.90;;;;;;5053261;28;20025;-79
2022/10/30 05:21:35;;;;;;;11.32;4.28;;;13.00;99.90;;;;;;5053988;28;20135;-80
2022/10/30 05:24:01;;;;;;;10.57;4.07;;;13.00;99.90;;;;;;5054117;28;20036;-80
2022/10/30 05:26:30;;;;;;;11.98;4.68;;;12.90;99.90;;;;;;5059777;28;20502;-80
2022/10/30 05:28:55;;;;;;;12.25;5.00;;;12.90;99.90;;;;;;5058379;28;20025;-81
2022/10/30 05:31:21;;;;;;;9.75;3.97;;;12.90;99.90;;;;;;5053231;28;20043;-79
2022/10/30 05:33:49;;;;;;;11.23;4.47;;;12.90;99.90;;;;;;5057693;28;20025;-81
2022/10/30 05:36:15;;;;;;;14.55;4.38;;;12.90;99.90;;;;;;5052995;28;20017;-81
2022/10/30 05:38:45;;;;;;;13.63;3.95;;;12.90;99.90;;;;;;5054990;28;20538;-81
2022/10/30 05:41:16;;;;;;;14.40;4.38;;;12.80;99.90;;;;;;5054346;28;20459;-81
2022/10/30 05:43:44;;;;;;;12.57;4.55;;;12.80;99.90;;;;;;5058272;28;20546;-81
2022/10/30 05:46:16;;;;;;;9.77;4.30;;;12.70;99.90;;;;;;5054958;28;20076;-81
2022/10/30 05:48:44;;;;;;;14.30;4.45;;;12.70;99.90;;;;;;5048548;28;20026;-78
2022/10/30 05:51:13;;;;;;;14.30;4.78;;;12.60;99.90;;;;;;5051309;28;20024;-80
2022/10/30 05:53:38;;;;;;;16.00;5.13;;;12.60;99.90;;;;;;5057683;28;20474;-80
2022/10/30 05:56:10;;;;;;;16.17;5.55;;;12.50;99.90;;;;;;5063025;28;20055;-79
2022/10/30 05:58:36;;;;;;;11.60;5.15;;;12.50;99.90;;;;;;5058684;28;20017;-79
2022/10/30 06:01:20;;;;;;;13.70;4.63;;;12.50;99.90;;;;;;5058148;28;20039;-80
2022/10/30 06:03:46;;;;;;;15.57;5.40;;;12.50;99.90;;;;;;5052955;28;20029;-79
2022/10/30 06:06:11;;;;;;;17.73;4.75;;;12.40;99.90;;;;;;5053970;28;20034;-79
2022/10/30 06:08:43;;;;;;;10.68;5.00;;;12.40;99.90;;;;;;5057024;28;20496;-78
2022/10/30 06:11:15;;;;;;;13.48;4.53;;;12.40;99.90;;;;;;5072899;28;20052;-80
2022/10/30 06:13:43;;;;;;;10.07;4.15;;;12.40;99.90;;;;;;5053315;28;20028;-81
2022/10/30 06:16:09;;;;;;;11.27;5.10;;;12.40;99.90;;;;;;5058381;28;20111;-81
2022/10/30 06:18:34;;;;;;;16.50;5.43;;;12.40;99.90;;;;;;5055184;28;20076;-79
2022/10/30 06:21:09;;;;;;;14.32;4.80;;;12.30;99.90;;;;;;5052805;28;20009;-78
2022/10/30 06:23:34;;;;;;;15.73;5.60;;;12.40;99.90;;;;;;5048235;28;20025;-77
2022/10/30 06:26:00;;;;;;;11.02;4.90;;;12.40;99.90;;;;;;5051895;28;20516;-73
2022/10/30 06:28:29;;;;;;;13.27;5.53;;;12.40;99.90;;;;;;5050413;28;20032;-73
2022/10/30 06:30:54;;;;;;;15.00;5.57;;;12.40;99.90;;;;;;5053729;28;20017;-74
2022/10/30 06:33:20;;;;;;;15.50;5.63;;;12.40;99.90;;;;;;5049401;28;20078;-75
2022/10/30 06:35:48;;;;;;;11.45;5.07;;;12.50;99.90;;;;;;5053132;28;20028;-75
2022/10/30 06:38:14;;;;;;;12.55;5.72;;;12.50;99.90;;;;;;5046459;28;20021;-76
2022/10/30 06:40:40;;;;;;;10.60;4.53;;;12.50;99.90;;;;;;5052629;28;20025;-74
2022/10/30 06:43:06;;;;;;;19.50;4.95;;;12.60;99.90;;;;;;5050836;28;20029;-75
2022/10/30 06:45:38;;;;;;;15.07;4.35;;;12.60;99.90;;;;;;5052281;28;20029;-73
2022/10/30 06:48:03;;;;;;;8.70;4.20;;;12.60;99.90;;;;;;5053411;28;20437;-73
2022/10/30 06:50:29;;;;;;;11.18;4.60;;;12.60;99.90;;;;;;5047992;28;20029;-73
2022/10/30 06:52:55;;;;;;;14.88;4.60;;;12.70;99.90;;;;;;5054022;28;20074;-74
2022/10/30 06:55:20;;;;;;;9.70;4.00;;;12.70;99.90;;;;;;5048385;28;20044;-72
2022/10/30 06:57:55;;;;;;;15.27;3.78;;;12.70;99.90;;;;;;5056594;28;20086;-78
2022/10/30 07:00:30;;;;;;;11.13;3.67;;;12.80;99.90;;;;;;5053363;28;20057;-77
2022/10/30 07:03:00;;;;;;;7.90;3.90;;;12.90;99.90;;;;;;5054723;28;20018;-78
2022/10/30 07:05:29;;;;;;;9.70;3.22;;;12.80;99.90;;;;;;5065642;28;20063;-77
2022/10/30 07:08:04;;;;;;;17.98;3.38;;;12.90;99.90;;;;;;5056960;28;20029;-78
2022/10/30 07:10:29;;;;;;;10.73;3.08;;;13.00;99.90;;;;;;5053750;28;20104;-77
2022/10/30 07:12:57;;;;;;;10.40;3.35;;;13.00;99.90;;;;;;5059079;28;20057;-78
2022/10/30 07:15:24;;;;;;;19.65;3.83;;;13.10;99.90;;;;;;5056828;28;20028;-78
2022/10/30 07:17:57;;;;;;;10.00;4.00;;;13.10;99.90;;;;;;5055792;28;20029;-78
2022/10/30 07:20:24;;;;;;;;;;;13.20;99.90;;;;;;5057486;28;20065;-77
2022/10/30 07:22:49;;;;;;;9.02;3.78;;;13.20;99.90;;;;;;5048437;28;20548;-78
2022/10/30 07:25:15;;;;;;;9.55;3.90;;;13.30;99.90;;;;;;5053511;28;20009;-77
2022/10/30 07:27:45;;;;;;;11.27;3.90;;;13.30;99.90;;;;;;5053856;28;20108;-77
2022/10/30 07:30:15;;;;;;;11.48;3.72;;;13.40;99.90;;;;;;5053460;28;20028;-77
2022/10/30 07:32:42;;;;;;;8.10;3.92;;;13.50;99.90;;;;;;5053094;28;20029;-77
2022/10/30 07:35:11;;;;;;;11.00;3.95;;;13.50;99.90;;;;;;5044597;28;20252;-77
2022/10/30 07:37:37;;;;;;;13.00;3.90;;;13.60;99.90;;;;;;5051350;28;20041;-78
2022/10/30 07:40:06;;;;;;;13.15;4.43;;;13.60;99.90;;;;;;5054701;28;20021;-79
2022/10/30 07:42:32;;;;;;;10.55;3.58;;;13.70;99.90;;;;;;5054316;28;20029;-78
2022/10/30 07:44:58;;;;;;;10.15;3.92;;;13.80;99.90;;;;;;5055559;28;20053;-78
2022/10/30 07:47:24;;;;;;;14.32;3.75;;;13.80;99.90;;;;;;5051838;28;20075;-77
2022/10/30 07:49:49;;;;;;;11.50;3.70;;;13.80;99.90;;;;;;5057819;28;20041;-78
2022/10/30 07:52:15;;;;;;;15.50;3.70;;;13.90;99.90;;;;;;5052800;28;20479;-78
2022/10/30 07:54:41;;;;;;;11.45;3.83;;;13.90;99.90;;;;;;5059520;28;20017;-77
2022/10/30 07:57:06;;;;;;;12.32;4.35;;;13.90;99.90;;;;;;5057110;28;20067;-78
2022/10/30 07:59:35;;;;;;;10.52;4.15;;;14.00;99.90;;;;;;5053190;28;20021;-78
2022/10/30 08:02:00;;;;;;;13.68;4.13;;;14.00;99.90;;;;;;5052769;28;20025;-77
2022/10/30 08:04:26;;;;;;;11.27;4.47;;;14.00;99.90;;;;;;5058609;28;20032;-78
2022/10/30 08:06:55;;;;;;;11.70;3.70;;;14.10;99.90;;;;;;5057353;28;20032;-78
2022/10/30 08:09:20;;;;;;;13.40;4.00;;;14.10;99.90;;;;;;5074463;28;20020;-76
2022/10/30 08:11:46;;;;;;;14.27;4.18;;;14.10;99.90;;;;;;5050423;28;20056;-76
2022/10/30 08:14:14;;;;;;;12.18;4.80;;;14.10;99.90;;;;;;5054977;28;20096;-76
2022/10/30 08:16:43;;;;;;;11.57;5.00;;;14.20;99.90;;;;;;5064546;28;20118;-75
2022/10/30 08:19:08;;;;;;;10.73;3.67;;;14.20;99.90;;;;;;5074392;28;20024;-77
2022/10/30 08:21:37;;;;;;;9.10;4.07;;;14.30;99.90;;;;;;5057086;28;20021;-78
2022/10/30 08:24:06;;;;;;;11.75;3.38;;;14.30;99.90;;;;;;5048327;28;20025;-77
2022/10/30 08:26:32;;;;;;;14.98;4.28;;;14.40;99.90;;;;;;5047307;28;20040;-77
2022/10/30 08:29:00;;;;;;;7.53;3.00;;;14.50;99.90;;;;;;5060313;28;20028;-76
2022/10/30 08:31:26;;;;;;;9.20;3.10;;;14.50;99.90;;;;;;5071203;28;20028;-77
2022/10/30 08:33:52;;;;;;;8.90;3.08;;;14.60;99.90;;;;;;5058018;28;20029;-77
2022/10/30 08:36:17;;;;;;;9.63;2.80;;;14.60;99.90;;;;;;5054190;28;20036;-77
2022/10/30 08:38:46;;;;;;;9.25;3.75;;;14.70;99.90;;;;;;5058389;28;20473;-76
2022/10/30 08:41:11;;;;;;;8.50;3.17;;;14.70;99.90;;;;;;5052574;28;20539;-77
2022/10/30 08:43:37;;;;;;;9.45;3.28;;;14.70;99.90;;;;;;5054241;28;20033;-76
2022/10/30 08:46:03;;;;;;;8.40;3.47;;;14.80;99.90;;;;;;5065598;28;20039;-75
2022/10/30 08:48:29;;;;;;;12.00;3.50;;;14.80;99.90;;;;;;5057445;28;20101;-76
2022/10/30 08:51:07;;;;;;;12.77;4.22;;;14.80;99.90;;;;;;5053668;28;20033;-77
2022/10/30 08:53:32;;;;;;;9.63;3.45;;;14.80;99.90;;;;;;5053142;28;20021;-77
2022/10/30 08:55:58;;;;;;;8.88;3.45;;;14.90;99.90;;;;;;5057658;28;20021;-76
2022/10/30 08:58:23;;;;;;;11.77;3.40;;;14.80;99.90;;;;;;5057327;28;20013;-77
2022/10/30 09:00:49;;;;;;;11.43;3.00;;;14.90;99.90;;;;;;5054548;28;20031;-76
2022/10/30 09:03:20;;;;;;;10.43;2.95;;;15.00;99.90;;;;;;5054765;28;20486;-76
2022/10/30 09:05:46;;;;;;;9.98;3.03;;;14.90;99.90;;;;;;5054302;28;20029;-76
2022/10/30 09:08:15;;;;;;;12.00;2.80;;;15.00;99.90;;;;;;5055254;28;20075;-78
2022/10/30 09:10:43;;;;;;;12.85;3.63;;;15.10;99.90;;;;;;5054479;28;20071;-78
2022/10/30 09:15:36;;;;;;;13.55;3.70;;;15.20;99.90;;;;;;5067191;28;20048;-75
2022/10/30 09:18:03;;;;;;;10.45;3.45;;;15.30;99.90;;;;;;5071408;28;20020;-76
2022/10/30 09:20:38;;;;;;;9.68;3.78;;;15.30;99.90;;;;;;5068654;28;20094;-76
2022/10/30 09:23:03;;;;;;;14.45;3.72;;;15.40;99.90;;;;;;5073352;28;20052;-76
2022/10/30 09:25:29;;;;;;;11.27;3.67;;;15.40;99.90;;;;;;5075933;28;20051;-76
2022/10/30 09:27:55;;;;;;;13.88;3.50;;;15.50;99.90;;;;;;5064145;28;20028;-77
2022/10/30 09:30:30;;;;;;;12.80;4.80;;;15.60;99.90;;;;;;5072684;28;20524;-76
2022/10/30 09:33:05;;;;;;;15.23;4.20;;;15.60;99.90;;;;;;5071063;28;20678;-77
2022/10/30 09:35:31;;;;;;;11.50;4.13;;;15.70;99.90;;;;;;5070532;28;20048;-77
2022/10/30 09:37:57;;;;;;;8.68;3.97;;;15.80;99.90;;;;;;5066335;28;20037;-77
2022/10/30 09:41:05;;;;;;;16.42;4.72;;;15.90;99.90;;;;;;5066646;28;20051;-77
2022/10/30 09:43:49;;;;;;;9.45;3.63;;;16.00;99.90;;;;;;5072861;28;20112;-77
2022/10/30 09:46:45;;;;;;;12.32;3.60;;;16.00;99.90;;;;;;5074876;28;20035;-77
2022/10/30 09:49:29;;;;;;;13.38;3.45;;;16.10;99.90;;;;;;5068039;28;20033;-76
2022/10/30 09:52:03;;;;;;;11.27;3.33;;;16.20;99.90;;;;;;5069431;28;20455;-77
2022/10/30 09:54:57;;;;;;;10.57;3.38;;;16.30;99.90;;;;;;5087251;28;20119;-77
2022/10/30 09:58:00;;;;;;;9.90;3.10;;;16.30;99.90;;;;;;5070166;28;20071;-77
2022/10/30 10:00:45;;;;;;;11.30;3.35;;;16.40;99.90;;;;;;5072405;28;20269;-77
2022/10/30 10:03:40;;;;;;;11.20;3.75;;;16.50;99.90;;;;;;5073831;28;20488;-77
2022/10/30 10:06:14;;;;;;;8.98;3.50;;;16.60;99.90;;;;;;5068961;28;20412;-77
2022/10/30 10:09:06;;;;;;;;;;;16.70;99.90;;;;;;5070982;28;20031;-77
2022/10/30 10:11:46;;;;;;;18.15;3.88;;;16.70;99.90;;;;;;5052856;28;19923;-77
2022/10/30 10:14:21;;;;;;;9.93;3.00;;;16.90;99.90;;;;;;5066142;28;20495;-77
2022/10/30 10:16:55;;;;;;;9.70;2.65;;;16.90;99.90;;;;;;5071227;28;20038;-77
2022/10/30 10:19:38;;;;;;;13.45;2.72;;;17.00;99.90;;;;;;5073879;28;20024;-77
2022/10/30 10:22:13;;;;;;;6.75;2.83;;;17.10;99.90;;;;;;5071012;28;20390;-77
2022/10/30 10:24:43;;;;;;;12.40;3.17;;;17.20;99.90;;;;;;5069377;28;20024;-77
2022/10/30 10:27:48;;;;;;;10.20;2.50;;;17.20;99.90;;;;;;5072408;28;20025;-77
2022/10/30 10:30:28;;;;;;;5.38;2.42;;;17.30;99.90;;;;;;5069094;28;20044;-77
2022/10/30 10:33:40;;;;;;;7.68;2.58;;;17.40;99.90;;;;;;5072136;28;20495;-77
2022/10/30 10:36:34;;;;;;;9.20;2.83;;;17.50;99.90;;;;;;5064905;28;20492;-77
2022/10/30 10:39:25;;;;;;;8.87;2.60;;;17.60;99.90;;;;;;5087566;28;20053;-78
2022/10/30 10:42:16;;;;;;;7.85;2.35;;;17.70;99.90;;;;;;5073564;28;20123;-77
2022/10/30 10:45:00;;;;;;;6.75;2.45;;;17.70;99.90;;;;;;5067502;28;20024;-77
2022/10/30 10:47:38;;;;;;;13.00;2.50;;;17.80;99.90;;;;;;5070779;28;20025;-77
2022/10/30 10:50:28;;;;;;;10.20;3.28;;;17.80;99.90;;;;;;5072744;28;20028;-77
2022/10/30 10:53:17;;;;;;;7.20;2.40;;;17.90;99.90;;;;;;5065163;28;20028;-76
2022/10/30 10:55:47;;;;;;;6.85;2.53;;;17.90;99.90;;;;;;5069262;28;20024;-76
2022/10/30 10:58:35;;;;;;;8.77;2.50;;;18.00;99.90;;;;;;5065517;28;20039;-77
2022/10/30 11:01:31;;;;;;;12.98;2.88;;;17.90;99.90;;;;;;5065487;28;20111;-77
2022/10/30 11:04:13;;;;;;;9.48;2.55;;;18.00;99.90;;;;;;5073013;28;20044;-77
2022/10/30 11:06:42;;;;;;;13.80;3.08;;;18.10;99.90;;;;;;5070554;28;20547;-77
2022/10/30 11:09:13;;;;;;;12.77;3.05;;;18.20;99.90;;;;;;5068748;28;20024;-77
2022/10/30 11:11:50;;;;;;;6.38;2.72;;;18.20;99.90;;;;;;5067747;28;20369;-76
2022/10/30 11:14:46;;;;;;;9.32;2.70;;;18.30;99.90;;;;;;5065647;28;20094;-76
2022/10/30 11:17:26;;;;;;;10.88;2.95;;;18.30;99.90;;;;;;5055067;28;20040;-77
2022/10/30 11:19:59;;;;;;;5.75;2.83;;;18.40;99.90;;;;;;5084187;28;20320;-76
2022/10/30 11:22:31;;;;;;;;;;;18.40;99.90;;;;;;5065310;28;20094;-76
2022/10/30 11:25:18;;;;;;;12.27;2.72;;;18.40;99.90;;;;;;5066991;28;19924;-77
2022/10/30 11:27:47;;;;;;;10.75;3.55;;;18.50;99.90;;;;;;5066869;28;20028;-77
2022/10/30 11:30:25;;;;;;;8.45;3.20;;;18.50;99.90;;;;;;5069072;28;20513;-78
2022/10/30 11:32:50;;;;;;;7.60;3.13;;;18.50;99.90;;;;;;5069502;28;20106;-78
2022/10/30 11:35:20;;;;;;;7.95;2.67;;;18.60;99.90;;;;;;5068629;28;20461;-78
2022/10/30 11:37:49;;;;;;;10.63;2.92;;;18.70;99.90;;;;;;5073672;28;20028;-77
2022/10/30 11:40:24;;;;;;;9.32;2.42;;;18.80;99.90;;;;;;5069607;28;20025;-77
2022/10/30 11:43:03;;;;;;;6.38;3.03;;;18.80;99.90;;;;;;5083320;28;20068;-78
2022/10/30 11:45:33;;;;;;;7.85;2.55;;;18.90;99.90;;;;;;5069087;28;20063;-77
2022/10/30 11:48:28;;;;;;;14.52;3.35;;;19.00;99.90;;;;;;5068414;28;20036;-77
2022/10/30 11:51:02;;;;;;;7.03;2.53;;;19.10;99.90;;;;;;5071168;28;20044;-77
2022/10/30 11:53:41;;;;;;;5.60;2.60;;;19.10;99.90;;;;;;5071419;28;20070;-77
2022/10/30 11:56:15;;;;;;;9.63;3.20;;;19.30;99.90;;;;;;5067365;28;20029;-77
2022/10/30 11:58:54;;;;;;;6.93;2.40;;;19.30;99.90;;;;;;5069550;28;20024;-78
2022/10/30 12:01:35;;;;;;;10.15;2.80;;;19.40;99.90;;;;;;5060817;28;20477;-77
2022/10/30 12:04:27;;;;;;;6.63;2.05;;;19.50;99.90;;;;;;5067295;28;20024;-78
2022/10/30 12:07:30;;;;;;;8.15;2.50;;;19.60;99.90;;;;;;5070456;28;20037;-77
2022/10/30 12:10:03;;;;;;;9.10;2.53;;;19.70;99.90;;;;;;5071364;28;20029;-77
2022/10/30 12:12:38;;;;;;;9.70;3.25;;;19.80;99.90;;;;;;5057769;28;20024;-79
2022/10/30 12:15:25;;;;;;;8.85;2.70;;;19.90;99.90;;;;;;5064295;28;20116;-80
2022/10/30 12:17:52;;;;;;;8.35;2.55;;;20.00;99.90;;;;;;5065846;28;20036;-75
2022/10/30 12:20:18;;;;;;;7.88;2.92;;;20.00;99.90;;;;;;5063516;28;20023;-75
2022/10/30 12:22:50;;;;;;;9.63;2.22;;;20.10;99.90;;;;;;5065001;28;20483;-73
2022/10/30 12:25:30;;;;;;;10.32;2.95;;;20.20;99.90;;;;;;5064032;28;20477;-76
2022/10/30 12:28:16;;;;;;;6.78;2.53;;;20.20;99.90;;;;;;5068952;28;20017;-75
2022/10/30 12:30:58;;;;;;;8.88;2.33;;;20.40;99.90;;;;;;5069452;28;20037;-72
2022/10/30 12:33:58;;;;;;;6.57;2.50;;;20.40;99.90;;;;;;5075032;28;20423;-73
2022/10/30 12:36:44;;;;;;;8.35;2.30;;;20.60;99.90;;;;;;5051637;28;20059;-74
2022/10/30 12:39:52;;;;;;;8.98;2.30;;;20.70;99.80;;;;;;5066385;28;20020;-74
2022/10/30 12:42:21;;;;;;;5.00;2.55;;;20.80;99.80;;;;;;5068356;28;20389;-73
2022/10/30 12:45:15;;;;;;;11.07;2.85;;;20.80;99.40;;;;;;5090537;28;20021;-73
2022/10/30 12:47:52;;;;;;;8.48;3.30;;;20.90;99.70;;;;;;5079002;28;20045;-73
2022/10/30 12:50:26;;;;;;;8.05;2.97;;;20.90;99.80;;;;;;5068673;28;20377;-72
2022/10/30 12:53:20;;;;;;;9.27;2.92;;;20.90;99.80;;;;;;5073265;28;20059;-72
2022/10/30 12:55:50;;;;;;;6.18;3.00;;;20.90;99.40;;;;;;5071190;28;20421;-72
2022/10/30 12:58:27;;;;;;;8.70;2.80;;;21.00;99.60;;;;;;5075745;28;20021;-72
2022/10/30 13:01:35;;;;;;;5.50;2.63;;;21.10;99.60;;;;;;5062344;28;20033;-72
2022/10/30 13:04:39;;;;;;;5.45;2.22;;;21.20;98.70;;;;;;5050556;28;20389;-72
2022/10/30 13:07:44;;;;;;;6.80;2.00;;;21.20;99.10;;;;;;5049865;28;20489;-72
2022/10/30 13:10:30;;;;;;;11.63;3.17;;;21.20;98.90;;;;;;5052516;28;20036;-72
2022/10/30 13:13:02;;;;;;;8.75;3.45;;;21.20;98.50;;;;;;5073180;28;20040;-73